Alto, New Mexico
Current Conditions -  °F | °C
As of 3:35 PM on Monday 20 Oct 2014 (Local Time) from KSRR Reporting Station
Broken Clouds Broken Clouds  
Wind Chill: 14°   Ceiling: 12000
Heat Index: 14°   Visibility: 10mi
Dew Point:   Wind: 10mph
Humidity: 72%   Direction: 140°SE
Pressure: 30.21"   Gusts: NA
Location:  33.39°N, 105.69°W
Report Text: KSRR 202135Z AUTO 14009KT 10SM FEW027 SCT060 BKN120 14/09 A3021 RMK AO2
Loading
Personal Weather Stations






























Interactive Weather Map
Tropical Storm Tracking
New forecast layout! Learn more

10-Day Weather Forecast

Advertisements
Track Severe Weather on mobile